Have a Safe July 4th! 

Flight Track Log - Related Links

Times and Time Zones

All times are in EDT time to prevent confusion due to time zone crossing. See the ASQ5958 flight status page for this flight to view local times or setup timezone preferences in your user account.

Time Position Orientation Groundspeed Altitude Reporting Facility
EDT Latitude Longitude Course Direction KTS MPH feet Rate Location/Type
Sat 06:55:16 AM 36.1333 -86.7000 68° East 156 180 1,200  Level Nashville TRACON
Sat 06:56:22 AM 36.1500 -86.7500 292° West 183 211 3,200 1,905 Climbing Nashville TRACON
Sat 06:57:22 AM 36.2000 -86.7333 15° North 235 270 5,200 1,934 Climbing Nashville TRACON
Sat 06:58:00 AM 36.1922 -86.1217 80° East  Level FlightAware Approximate
Sat 06:58:23 AM 36.2000 -86.6500 90° East 248 285 7,100  Level Nashville TRACON
Sat 06:59:00 AM 36.2297 -85.9924 64° Northeast  Level FlightAware Approximate
Sat 06:59:12 AM 36.2000 -86.5831 90° East 241 277 8,600  Level Indianapolis Center
Sat 07:00:00 AM 36.2777 -85.8669 68° East  Level FlightAware Approximate
Sat 07:00:12 AM 36.1997 -86.4947 90° East 249 287 10,300  Level Indianapolis Center
Sat 07:01:13 AM 36.2000 -86.3994 90° East 269 310 11,700 1,377 Climbing Indianapolis Center
Sat 07:02:14 AM 36.1997 -86.2939 90° East 297 342 13,100 1,475 Climbing Indianapolis Center
Sat 07:03:15 AM 36.2000 -86.1858 90° East 308 354 14,700 1,537 Climbing Indianapolis Center
Sat 07:04:15 AM 36.2014 -86.0756 89° East 315 362 16,200 1,488 Climbing Indianapolis Center
Sat 07:05:16 AM 36.2428 -85.9783 62° Northeast 313 360 17,700 1,438 Climbing Memphis Center
Sat 07:06:16 AM 36.2850 -85.8828 61° Northeast 314 361 19,100 1,438 Climbing Memphis Center
Sat 07:07:17 AM 36.3261 -85.7906 61° Northeast 314 361 20,600 1,438 Climbing Memphis Center
Sat 07:08:17 AM 36.3694 -85.6986 60° Northeast 313 360 22,000 1,339 Climbing Memphis Center
Sat 07:09:18 AM 36.4153 -85.6042 59° Northeast 314 361 23,300 1,289 Climbing Memphis Center
Sat 07:10:18 AM 36.4606 -85.5086 59° Northeast 315 362 24,600 1,289 Climbing Memphis Center
Sat 07:11:19 AM 36.5061 -85.4133 59° Northeast 316 364 25,900 1,289 Climbing Memphis Center
Sat 07:12:19 AM 36.5519 -85.3164 60° Northeast 320 368 27,200 1,210 Climbing Memphis Center
Sat 07:13:23 AM 36.5969 -85.2186 60° Northeast 322 371 28,400 1,306 Climbing Indianapolis Center
Sat 07:14:23 AM 36.6422 -85.0925 66° East 335 386 29,900 1,339 Climbing Indianapolis Center
Sat 07:15:24 AM 36.6753 -84.9839 69° East 336 387 31,100 1,033 Climbing Indianapolis Center
Sat 07:16:25 AM 36.7097 -84.8744 69° East 336 387 32,000 836 Climbing Indianapolis Center
Sat 07:17:26 AM 36.7436 -84.7617 69° East 342 394 32,800 836 Climbing Indianapolis Center
Sat 07:18:27 AM 36.7778 -84.6447 70° East 353 406 33,700 836 Climbing Indianapolis Center
Sat 07:19:28 AM 36.8150 -84.5283 68° East 357 411 34,500 639 Climbing Indianapolis Center
Sat 07:20:29 AM 36.8489 -84.4136 70° East 366 421 35,000 246 Climbing Indianapolis Center
Sat 07:21:30 AM 36.8867 -84.2875 69° East 380 437 35,000  Level Indianapolis Center
Sat 07:22:31 AM 36.9258 -84.1575 69° East 394 453 35,000  Level Indianapolis Center
Sat 07:23:33 AM 36.9636 -84.0294 70° East 394 453 35,000  Level Indianapolis Center
Sat 07:24:34 AM 37.0083 -83.8803 69° East 394 453 35,000  Level Indianapolis Center
Sat 07:25:35 AM 37.0461 -83.7519 70° East 393 452 35,000  Level Indianapolis Center
Sat 07:26:36 AM 37.0825 -83.6256 70° East 391 450 35,000  Level Indianapolis Center
Sat 07:27:37 AM 37.1200 -83.4961 70° East 390 449 35,000  Level Indianapolis Center
Sat 07:28:38 AM 37.1575 -83.3700 70° East 389 448 35,000  Level Indianapolis Center
Sat 07:29:39 AM 37.1944 -83.2436 70° East 387 445 35,000  Level Indianapolis Center
Sat 07:30:40 AM 37.2308 -83.1156 70° East 387 445 35,000  Level Indianapolis Center
Sat 07:31:43 AM 37.2681 -82.9872 70° East 387 445 35,000  Level Indianapolis Center
Sat 07:32:42 AM 37.3039 -82.8586 71° East 387 445 35,000  Level Indianapolis Center
Sat 07:33:44 AM 37.3406 -82.7314 70° East 387 445 35,000  Level Indianapolis Center
Sat 07:34:45 AM 37.3758 -82.6042 71° East 386 444 35,000  Level Indianapolis Center
Sat 07:35:46 AM 37.4114 -82.4783 70° East 385 443 35,000  Level Indianapolis Center
Sat 07:36:47 AM 37.4467 -82.3508 71° East 385 443 35,000  Level Indianapolis Center
Sat 07:37:48 AM 37.4819 -82.2231 71° East 385 443 35,000  Level Indianapolis Center
Sat 07:38:49 AM 37.5178 -82.0944 71° East 385 443 35,000  Level Indianapolis Center
Sat 07:39:50 AM 37.5597 -81.9433 71° East 387 445 35,000  Level Indianapolis Center
Sat 07:40:51 AM 37.5950 -81.8117 71° East 390 449 35,000  Level Indianapolis Center
Sat 07:41:52 AM 37.6314 -81.6803 71° East 394 453 35,000  Level Indianapolis Center
Sat 07:42:54 AM 37.6667 -81.5486 71° East 394 453 35,000  Level Indianapolis Center
Sat 07:43:55 AM 37.6975 -81.4325 71° East 394 453 35,000  Level Indianapolis Center
Sat 07:44:56 AM 37.7336 -81.3008 71° East 395 455 35,000  Level Indianapolis Center
Sat 07:45:57 AM 37.7756 -81.1425 71° East 395 455 35,000  Level Indianapolis Center
Sat 07:46:58 AM 37.7889 -81.0019 83° East 399 459 35,000  Level Indianapolis Center
Sat 07:47:59 AM 37.7978 -80.8583 85° East 404 465 35,000  Level Indianapolis Center
Sat 07:49:01 AM 37.8069 -80.7161 85° East 404 465 35,000  Level Indianapolis Center
Sat 07:50:02 AM 37.8169 -80.5742 85° East 404 465 35,000  Level Indianapolis Center
Sat 07:51:03 AM 37.8253 -80.4300 86° East 405 466 35,000  Level Indianapolis Center
Sat 07:52:04 AM 37.8344 -80.2869 85° East 405 466 35,000  Level Indianapolis Center
Sat 07:53:05 AM 37.8428 -80.1431 86° East 405 466 35,000  Level Indianapolis Center
Sat 07:54:07 AM 37.8519 -79.9992 85° East 406 467 35,000  Level Indianapolis Center
Sat 07:55:08 AM 37.8608 -79.8533 86° East 410 472 35,000  Level Indianapolis Center
Sat 07:56:09 AM 37.8692 -79.7067 86° East 411 473 35,000  Level Indianapolis Center
Sat 07:57:10 AM 37.8772 -79.5600 86° East 412 474 35,000  Level Indianapolis Center
Sat 07:58:32 AM 37.8889 -79.3533 86° East 415 478 35,000  Level Washington Center
Sat 07:59:33 AM 37.8967 -79.2061 86° East 415 478 35,000  Level Washington Center
Sat 08:00:36 AM 37.9067 -79.0583 85° East 415 478 35,000  Level Washington Center
Sat 08:01:38 AM 37.9247 -78.9144 81° East 415 478 35,000  Level Washington Center
Sat 08:02:39 AM 37.9425 -78.7681 81° East 416 479 35,000  Level Washington Center
Sat 08:03:42 AM 37.9633 -78.5931 81° East 418 481 35,000  Level Washington Center
Sat 08:04:43 AM 37.9794 -78.4458 82° East 418 481 35,000  Level Washington Center
Sat 08:05:44 AM 37.9967 -78.2992 81° East 419 482 35,000  Level Washington Center
Sat 08:06:47 AM 38.0167 -78.1569 80° East 420 483 35,000  Level Washington Center
Sat 08:07:47 AM 38.0742 -78.0322 60° Northeast 416 479 35,000  Level Washington Center
Sat 08:08:51 AM 38.1358 -77.9097 57° Northeast 413 475 35,000  Level Washington Center
Sat 08:09:52 AM 38.2089 -77.7614 58° Northeast 414 476 35,000  Level Washington Center
Sat 08:10:53 AM 38.2717 -77.6381 57° Northeast 414 476 35,000  Level Washington Center
Sat 08:11:56 AM 38.3328 -77.5119 58° Northeast 418 481 35,000  Level Washington Center
Sat 08:12:59 AM 38.3947 -77.3858 58° Northeast 418 481 35,000  Level Washington Center
Sat 08:14:00 AM 38.4569 -77.2581 58° Northeast 421 484 35,000  Level Washington Center
Sat 08:15:01 AM 38.5317 -77.1064 58° Northeast 422 486 35,000  Level Washington Center
Sat 08:16:05 AM 38.5933 -76.9783 58° Northeast 422 486 35,000  Level Washington Center
Sat 08:17:06 AM 38.6558 -76.8497 58° Northeast 425 489 35,000 -677 Level Washington Center
Sat 08:18:09 AM 38.7236 -76.7250 55° Northeast 427 491 33,600 -1,403 Descending Washington Center
Sat 08:19:10 AM 38.8097 -76.6256 42° Northeast 420 483 32,100 -1,632 Descending Washington Center
Sat 08:20:14 AM 38.9081 -76.5114 42° Northeast 403 464 30,200 -1,619 Descending Washington Center
Sat 08:21:16 AM 38.9917 -76.4164 41° Northeast 403 464 28,700 -1,366 Descending Washington Center
Sat 08:22:17 AM 39.0742 -76.3186 43° Northeast 403 464 27,400 -1,113 Descending Washington Center
Sat 08:23:20 AM 39.1575 -76.2231 42° Northeast 403 464 26,400 -1,065 Descending Washington Center
Sat 08:24:21 AM 39.2436 -76.1208 43° Northeast 387 445 25,200 -1,056 Descending Washington Center
Sat 08:25:25 AM 39.3244 -76.0244 43° Northeast 389 448 24,200 -960 Descending Washington Center
Sat 08:26:26 AM 39.4086 -75.9278 42° Northeast 405 466 23,200 -576 Descending Washington Center
Sat 08:27:30 AM 39.4986 -75.8228 42° Northeast 430 495 23,000 -97 Descending Washington Center
Sat 08:28:30 AM 39.5878 -75.7161 43° Northeast 436 502 23,000  Level Washington Center
Sat 08:29:31 AM 39.6933 -75.5906 42° Northeast 432 497 23,000 -960 Level Washington Center
Sat 08:30:35 AM 39.7808 -75.4858 43° Northeast 429 494 21,000 -2,352 Descending Washington Center
Sat 08:31:36 AM 39.8675 -75.3814 43° Northeast 426 490 18,100 -2,640 Descending Washington Center
Sat 08:32:40 AM 39.9517 -75.2794 43° Northeast 410 472 15,500 -2,448 Descending Washington Center
Sat 08:33:41 AM 40.0303 -75.1828 43° Northeast 389 448 13,000 -2,164 Descending Washington Center
Sat 08:34:42 AM 40.1053 -75.0900 43° Northeast 372 428 11,100 -1,248 Descending Washington Center
Sat 08:35:46 AM 40.1769 -75.0025 43° Northeast 350 403 10,400 -1,212 Descending Washington Center
Sat 08:36:21 AM 40.2333 -74.9500 35° Northeast 302 348 9,100 -1,714 Descending New York TRACON
Sat 08:37:10 AM 40.2708 -74.8850 53° Northeast 294 338 8,000 -584 Descending New York Center
Sat 08:38:14 AM 40.3358 -74.8233 36° Northeast 280 322 8,000 -432 Level New York Center
Sat 08:39:15 AM 40.4069 -74.7669 31° Northeast 280 322 7,100 -927 Descending New York Center
Sat 08:40:17 AM 40.4753 -74.7239 26° Northeast 273 314 6,100 -524 Descending New York Center
Sat 08:41:21 AM 40.5492 -74.6875 21° North 274 315 6,000 -48 Descending New York Center
Sat 08:42:23 AM 40.6247 -74.6503 21° North 272 313 6,000  Level New York Center
Sat 08:43:23 AM 40.6931 -74.6050 27° Northeast 273 314 6,000  Level New York Center
Sat 08:44:26 AM 40.7589 -74.5539 30° Northeast 274 315 6,000 -484 Level New York Center
Sat 08:45:27 AM 40.8139 -74.4706 49° Northeast 281 323 5,000 -927 Descending New York Center
Sat 08:46:29 AM 40.8639 -74.3942 49° Northeast 278 320 4,100 -526 Descending New York Center
Sat 08:47:21 AM 40.9167 -74.3333 41° Northeast 269 310 4,000 -54 Descending New York TRACON
Sat 08:48:21 AM 40.9000 -74.2333 102° East 277 319 4,000 -300 Level New York TRACON
Sat 08:49:21 AM 40.8833 -74.1500 105° East 261 300 3,400 -600 Descending New York TRACON
Sat 08:50:21 AM 40.8333 -74.0833 135° Southeast 234 269 2,800 -800 Descending New York TRACON
Sat 08:51:21 AM 40.7833 -74.1167 207° Southwest 212 244 1,800 -895 Descending New York TRACON
Sat 08:52:15 AM 40.7500 -74.1333 201° Southwest 150 173 1,100 -750 Descending New York TRACON
Sat 08:53:21 AM 40.7000 -74.1500 194° South 134 154 300 -727 Descending New York TRACON
Sat 08:55:00 AM 40.6833 -74.1667 162° South  Level FlightAware Approximate

Login

Don't have an account? Register now (free) for customized features, flight alerts, and more!